createdAt,value
2023-06-28T00:00:11.997Z,21.44
2023-06-28T00:02:14.856Z,21.42
2023-06-28T00:04:17.765Z,21.42
2023-06-28T00:06:21.354Z,21.42
2023-06-28T00:08:25.368Z,21.40
2023-06-28T00:10:28.075Z,21.39
2023-06-28T00:12:32.726Z,21.39
2023-06-28T00:14:35.537Z,21.41
2023-06-28T00:16:38.217Z,21.40
2023-06-28T00:18:40.901Z,21.40
2023-06-28T00:20:43.765Z,21.39
2023-06-28T00:22:46.699Z,21.38
2023-06-28T00:24:50.801Z,21.37
2023-06-28T00:26:53.531Z,21.36
2023-06-28T00:28:56.220Z,21.35
2023-06-28T00:30:59.010Z,21.32
2023-06-28T00:33:01.705Z,21.29
2023-06-28T00:35:04.595Z,21.25
2023-06-28T00:37:07.359Z,21.24
2023-06-28T00:39:10.013Z,21.23
2023-06-28T00:41:14.043Z,21.23
2023-06-28T00:43:16.681Z,21.22
2023-06-28T00:45:19.364Z,21.22
2023-06-28T00:47:22.986Z,21.21
2023-06-28T00:49:29.082Z,21.20
2023-06-28T00:51:33.376Z,21.20
2023-06-28T00:53:36.063Z,21.19
2023-06-28T00:55:38.709Z,21.19
2023-06-28T00:57:43.013Z,21.19
2023-06-28T00:59:48.206Z,21.18
2023-06-28T01:01:51.365Z,21.18
2023-06-28T01:03:54.666Z,21.17
2023-06-28T01:05:58.882Z,21.17
2023-06-28T01:08:02.274Z,21.16
2023-06-28T01:10:06.281Z,21.14
2023-06-28T01:12:09.741Z,21.15
2023-06-28T01:14:14.971Z,21.16
2023-06-28T01:16:17.754Z,21.16
2023-06-28T01:18:22.400Z,21.15
2023-06-28T01:20:25.092Z,21.17
2023-06-28T01:22:28.867Z,21.18
2023-06-28T01:24:32.983Z,21.16
2023-06-28T01:26:35.926Z,21.16
2023-06-28T01:28:39.516Z,21.13
2023-06-28T01:30:42.755Z,21.12
2023-06-28T01:32:46.219Z,21.09
2023-06-28T01:34:48.959Z,21.08
2023-06-28T01:36:54.357Z,21.07
2023-06-28T01:38:58.348Z,21.08
2023-06-28T01:41:02.881Z,21.06
2023-06-28T01:43:07.471Z,21.06
2023-06-28T01:45:11.305Z,21.04
2023-06-28T01:47:14.144Z,21.05
2023-06-28T01:49:17.260Z,21.05
2023-06-28T01:51:20.416Z,21.05
2023-06-28T01:53:23.073Z,21.03
2023-06-28T01:55:25.778Z,21.02
2023-06-28T01:57:35.780Z,21.01
2023-06-28T01:59:38.438Z,21.00
2023-06-28T02:01:41.564Z,20.98
2023-06-28T02:03:44.413Z,20.98
2023-06-28T02:05:47.063Z,20.97
2023-06-28T02:07:49.795Z,20.98
2023-06-28T02:09:52.491Z,20.96
2023-06-28T02:11:55.212Z,20.95
2023-06-28T02:13:59.262Z,20.94
2023-06-28T02:16:03.275Z,20.92
2023-06-28T02:18:06.316Z,20.91
2023-06-28T02:20:11.702Z,20.87
2023-06-28T02:22:14.519Z,20.84
2023-06-28T02:24:17.192Z,20.80
2023-06-28T02:26:20.338Z,20.77
2023-06-28T02:28:23.054Z,20.75
2023-06-28T02:30:27.217Z,20.72
2023-06-28T02:32:31.892Z,20.70
2023-06-28T02:34:34.824Z,20.66
2023-06-28T02:36:37.563Z,20.65
2023-06-28T02:38:40.376Z,20.62
2023-06-28T02:40:43.214Z,20.63
2023-06-28T02:42:46.109Z,20.61
2023-06-28T02:44:48.810Z,20.59
2023-06-28T02:46:53.074Z,20.57
2023-06-28T02:48:55.931Z,20.55
2023-06-28T02:50:58.648Z,20.55
2023-06-28T02:53:01.361Z,20.53
2023-06-28T02:55:08.818Z,20.52
2023-06-28T02:57:11.593Z,20.51
2023-06-28T02:59:14.297Z,20.51
2023-06-28T03:01:17.046Z,20.49
2023-06-28T03:03:22.472Z,20.46
2023-06-28T03:05:25.196Z,20.42
2023-06-28T03:07:27.981Z,20.40
2023-06-28T03:09:30.722Z,20.39
2023-06-28T03:11:33.422Z,20.35
2023-06-28T03:13:36.256Z,20.35
2023-06-28T03:15:38.999Z,20.36
2023-06-28T03:17:41.962Z,20.38
2023-06-28T03:19:46.203Z,20.38
2023-06-28T03:21:48.907Z,20.40
2023-06-28T03:23:51.790Z,20.40
2023-06-28T03:25:54.700Z,20.38
2023-06-28T03:27:57.923Z,20.33
2023-06-28T03:30:00.600Z,20.32
2023-06-28T03:32:03.332Z,20.31
2023-06-28T03:34:06.117Z,20.31
2023-06-28T03:36:10.479Z,20.31
2023-06-28T03:38:13.381Z,20.31
2023-06-28T03:40:16.959Z,20.31
2023-06-28T03:42:19.638Z,20.30
2023-06-28T03:44:22.335Z,20.31
2023-06-28T03:46:25.071Z,20.31
2023-06-28T03:48:27.822Z,20.31
2023-06-28T03:50:30.581Z,20.30
2023-06-28T03:52:34.745Z,20.27
2023-06-28T03:54:37.506Z,20.25
2023-06-28T03:56:40.492Z,20.23
2023-06-28T03:58:43.116Z,20.23
2023-06-28T04:00:45.839Z,20.23
2023-06-28T04:02:48.619Z,20.22
2023-06-28T04:04:51.394Z,20.22
2023-06-28T04:06:54.154Z,20.22
2023-06-28T04:08:58.320Z,20.22
2023-06-28T04:11:01.167Z,20.21
2023-06-28T04:13:03.902Z,20.23
2023-06-28T04:15:08.776Z,20.22
2023-06-28T04:17:11.655Z,20.22
2023-06-28T04:19:14.833Z,20.19
2023-06-28T04:21:18.271Z,20.19
2023-06-28T04:23:21.031Z,20.18
2023-06-28T04:25:25.164Z,20.17
2023-06-28T04:27:28.111Z,20.14
2023-06-28T04:29:30.931Z,20.13
2023-06-28T04:31:33.679Z,20.12
2023-06-28T04:33:36.615Z,20.13
2023-06-28T04:35:39.276Z,20.14
2023-06-28T04:37:44.951Z,20.15
2023-06-28T04:39:47.909Z,20.13
2023-06-28T04:41:52.524Z,20.14
2023-06-28T04:43:56.704Z,20.13
2023-06-28T04:45:59.732Z,20.13
2023-06-28T04:48:02.641Z,20.13
2023-06-28T04:50:05.925Z,20.07
2023-06-28T04:52:08.709Z,20.07
2023-06-28T04:54:11.384Z,20.09
2023-06-28T04:56:14.189Z,20.12
2023-06-28T04:58:19.041Z,20.14
2023-06-28T05:00:21.887Z,20.16
2023-06-28T05:02:26.992Z,20.18
2023-06-28T05:04:29.881Z,20.22
2023-06-28T05:06:32.576Z,20.23
2023-06-28T05:08:35.751Z,20.25
2023-06-28T05:10:38.912Z,20.24
2023-06-28T05:12:41.636Z,20.25
2023-06-28T05:14:45.983Z,20.28
2023-06-28T05:16:48.878Z,20.29
2023-06-28T05:18:51.633Z,20.32
2023-06-28T05:20:54.307Z,20.34
2023-06-28T05:23:10.622Z,20.37
2023-06-28T05:25:13.380Z,20.40
2023-06-28T05:27:16.145Z,20.42
2023-06-28T05:29:20.560Z,20.44
2023-06-28T05:31:24.722Z,20.47
2023-06-28T05:33:27.419Z,20.48
2023-06-28T05:35:30.283Z,20.49
2023-06-28T05:37:33.008Z,20.49
2023-06-28T05:39:35.713Z,20.49
2023-06-28T05:41:38.338Z,20.49
2023-06-28T05:43:41.134Z,20.50
2023-06-28T05:45:44.284Z,20.50
2023-06-28T05:47:48.849Z,20.52
2023-06-28T05:49:51.623Z,20.54
2023-06-28T05:51:54.315Z,20.55
2023-06-28T05:53:57.041Z,20.59
2023-06-28T05:55:59.784Z,20.61
2023-06-28T05:58:02.508Z,20.62
2023-06-28T06:00:05.802Z,20.65
2023-06-28T06:02:08.782Z,20.69
2023-06-28T06:04:13.046Z,20.73
2023-06-28T06:06:16.092Z,20.77
2023-06-28T06:08:18.730Z,20.79
2023-06-28T06:10:21.567Z,20.82
2023-06-28T06:12:25.111Z,20.86
2023-06-28T06:14:27.760Z,20.87
2023-06-28T06:16:30.433Z,20.90
2023-06-28T06:18:34.932Z,20.94
2023-06-28T06:20:38.947Z,20.97
2023-06-28T06:22:41.621Z,20.97
2023-06-28T06:24:44.321Z,20.98
2023-06-28T06:26:47.091Z,20.98
2023-06-28T06:28:49.959Z,20.99
2023-06-28T06:30:53.045Z,20.98
2023-06-28T06:32:56.080Z,20.99
2023-06-28T06:34:59.540Z,20.99
2023-06-28T06:37:04.415Z,21.00
2023-06-28T06:39:07.197Z,21.02
2023-06-28T06:41:10.419Z,21.05
2023-06-28T06:43:13.114Z,21.06
2023-06-28T06:45:18.523Z,21.05
2023-06-28T06:47:21.325Z,21.07
2023-06-28T06:49:24.083Z,21.07
2023-06-28T06:51:27.068Z,21.08
2023-06-28T06:53:31.230Z,21.09
2023-06-28T06:55:34.917Z,21.10
2023-06-28T06:57:37.948Z,21.11
2023-06-28T06:59:40.725Z,21.13
2023-06-28T07:01:43.586Z,21.13
2023-06-28T07:03:46.307Z,21.14
2023-06-28T07:05:49.244Z,21.13
2023-06-28T07:07:52.044Z,21.11
2023-06-28T07:09:56.469Z,21.09
2023-06-28T07:11:59.301Z,21.09
2023-06-28T07:14:02.115Z,21.12
2023-06-28T07:16:05.138Z,21.12
2023-06-28T07:18:08.021Z,21.14
2023-06-28T07:20:11.375Z,21.15
2023-06-28T07:22:15.009Z,21.17
2023-06-28T07:24:17.730Z,21.13
2023-06-28T07:26:22.289Z,21.19
2023-06-28T07:28:25.066Z,21.22
2023-06-28T07:30:31.211Z,21.25
2023-06-28T07:32:34.044Z,21.27
2023-06-28T07:34:38.431Z,21.25
2023-06-28T07:36:41.189Z,21.24
2023-06-28T07:38:44.190Z,21.24
2023-06-28T07:40:47.074Z,21.30
2023-06-28T07:42:51.116Z,21.29
2023-06-28T07:44:53.829Z,21.33
2023-06-28T07:46:56.613Z,21.28
2023-06-28T07:49:00.795Z,21.27
2023-06-28T07:51:04.042Z,21.32
2023-06-28T07:53:06.903Z,21.35
2023-06-28T07:55:12.106Z,21.35
2023-06-28T07:57:15.218Z,21.38
2023-06-28T07:59:21.684Z,21.39
2023-06-28T08:01:24.835Z,21.42
2023-06-28T08:03:27.636Z,21.44
2023-06-28T08:05:30.471Z,21.49
2023-06-28T08:07:33.325Z,21.50
2023-06-28T08:09:36.078Z,21.53
2023-06-28T08:11:38.885Z,21.56
2023-06-28T08:13:41.856Z,21.54
2023-06-28T08:15:46.217Z,21.58
2023-06-28T08:17:49.756Z,21.61
2023-06-28T08:23:57.976Z,21.63
2023-06-28T08:28:03.912Z,21.66
2023-06-28T08:30:08.370Z,21.68
2023-06-28T08:32:12.768Z,21.69
2023-06-28T08:34:15.546Z,21.70
2023-06-28T08:36:18.404Z,21.71
2023-06-28T08:38:21.561Z,21.72
2023-06-28T08:40:25.603Z,21.72
2023-06-28T08:42:30.539Z,21.72
2023-06-28T08:44:34.729Z,21.69
2023-06-28T08:46:37.671Z,21.67
2023-06-28T08:48:42.190Z,21.68
2023-06-28T08:50:47.026Z,21.70
2023-06-28T08:52:51.306Z,21.74
2023-06-28T08:54:54.745Z,21.78
2023-06-28T08:57:10.527Z,21.82
2023-06-28T08:59:15.099Z,21.84
2023-06-28T09:01:17.988Z,21.88
2023-06-28T09:03:21.597Z,21.94
2023-06-28T09:05:25.963Z,21.96
2023-06-28T09:07:29.745Z,21.95
2023-06-28T09:09:32.939Z,21.94
2023-06-28T09:11:35.972Z,21.96
2023-06-28T09:13:40.647Z,21.96
2023-06-28T09:15:43.492Z,21.96
2023-06-28T09:17:46.326Z,22.01
2023-06-28T09:19:49.096Z,22.07
2023-06-28T09:21:54.315Z,22.06
2023-06-28T09:23:58.374Z,22.06
2023-06-28T09:28:10.575Z,21.96
2023-06-28T09:30:21.404Z,21.96
2023-06-28T09:32:26.974Z,22.08
2023-06-28T09:34:32.872Z,22.09
2023-06-28T09:36:38.694Z,22.17
2023-06-28T09:38:46.721Z,22.22
2023-06-28T09:40:58.392Z,22.28
2023-06-28T09:43:02.597Z,22.31
2023-06-28T09:45:08.144Z,22.36
2023-06-28T09:47:11.954Z,22.39
2023-06-28T09:49:23.186Z,22.44
2023-06-28T09:51:27.683Z,22.44
2023-06-28T09:53:30.532Z,22.51
2023-06-28T09:55:33.140Z,22.58
2023-06-28T09:57:37.564Z,22.59
2023-06-28T09:59:41.482Z,22.63
2023-06-28T10:01:45.224Z,22.70
2023-06-28T10:03:48.287Z,22.75
2023-06-28T10:05:54.755Z,22.89
2023-06-28T10:07:57.520Z,22.94
2023-06-28T10:10:00.561Z,22.92
2023-06-28T10:12:05.752Z,22.96
2023-06-28T10:14:10.333Z,23.02
2023-06-28T10:16:16.233Z,23.07
2023-06-28T10:18:19.233Z,23.21
2023-06-28T10:20:21.958Z,23.14
2023-06-28T10:22:25.021Z,23.22
2023-06-28T10:24:32.681Z,23.20
2023-06-28T10:26:36.021Z,23.18
2023-06-28T10:28:41.365Z,23.15
2023-06-28T10:30:45.557Z,23.13
2023-06-28T10:32:48.676Z,23.01
2023-06-28T10:34:52.250Z,22.93
2023-06-28T10:36:57.206Z,22.91
2023-06-28T10:38:59.939Z,22.87
2023-06-28T10:41:03.145Z,22.87
2023-06-28T10:43:05.903Z,22.90
2023-06-28T10:45:10.241Z,22.88
2023-06-28T10:47:17.432Z,22.92
2023-06-28T10:49:20.221Z,22.98
2023-06-28T10:51:23.666Z,22.92
2023-06-28T10:53:27.933Z,22.92
2023-06-28T10:55:32.622Z,22.95
2023-06-28T10:57:38.490Z,22.98
2023-06-28T10:59:43.014Z,22.99
2023-06-28T11:01:54.026Z,23.02
2023-06-28T11:04:12.980Z,23.09
2023-06-28T11:06:16.669Z,23.16
2023-06-28T11:08:20.101Z,23.21
2023-06-28T11:10:24.289Z,23.26
2023-06-28T11:12:26.961Z,23.36
2023-06-28T11:14:31.802Z,23.40
2023-06-28T11:16:37.641Z,23.34
2023-06-28T11:18:41.033Z,23.40
2023-06-28T11:20:51.678Z,23.41
2023-06-28T11:22:55.521Z,23.48
2023-06-28T11:24:58.412Z,23.53
2023-06-28T11:27:01.311Z,23.69
2023-06-28T11:29:15.876Z,23.73
2023-06-28T11:31:22.846Z,23.77
2023-06-28T11:35:49.611Z,23.77
2023-06-28T11:37:53.074Z,23.83
2023-06-28T11:39:55.821Z,23.87
2023-06-28T11:41:58.505Z,23.89
2023-06-28T11:44:05.179Z,23.96
2023-06-28T11:46:08.525Z,24.00
2023-06-28T11:48:18.665Z,24.03
2023-06-28T11:50:21.944Z,23.99
2023-06-28T11:52:26.172Z,23.96
2023-06-28T11:54:28.911Z,24.01
2023-06-28T11:56:36.126Z,24.03
2023-06-28T11:58:39.293Z,24.07
2023-06-28T12:00:43.586Z,24.07
2023-06-28T12:02:50.209Z,24.01
2023-06-28T12:05:00.286Z,24.02
2023-06-28T12:07:05.702Z,24.02
2023-06-28T12:09:29.027Z,24.02
2023-06-28T12:11:31.739Z,24.03
2023-06-28T12:13:34.779Z,24.06
2023-06-28T12:15:37.447Z,24.09
2023-06-28T12:17:40.742Z,24.18
2023-06-28T12:19:43.883Z,24.18
2023-06-28T12:21:46.887Z,24.24
2023-06-28T12:23:50.309Z,24.31
2023-06-28T12:25:54.398Z,24.36
2023-06-28T12:28:04.511Z,24.39
2023-06-28T12:33:02.039Z,24.43
2023-06-28T12:35:05.113Z,24.44
2023-06-28T12:37:09.796Z,24.50
2023-06-28T12:41:24.901Z,24.90
2023-06-28T12:43:30.095Z,25.56
2023-06-28T12:45:33.130Z,26.46
2023-06-28T12:47:35.958Z,27.44
2023-06-28T12:49:38.933Z,28.35
2023-06-28T12:51:42.431Z,29.07
2023-06-28T12:53:45.464Z,29.73
2023-06-28T12:55:48.190Z,30.31
2023-06-28T12:57:52.516Z,30.66
2023-06-28T12:59:55.744Z,30.93
2023-06-28T13:01:58.672Z,31.06
2023-06-28T13:04:02.428Z,31.08
2023-06-28T13:08:21.908Z,31.55
2023-06-28T13:10:27.153Z,31.29
2023-06-28T13:12:30.470Z,31.09
2023-06-28T13:14:38.272Z,31.16
2023-06-28T13:16:41.193Z,31.14
2023-06-28T13:18:43.831Z,31.20
2023-06-28T13:20:46.771Z,31.45
2023-06-28T13:22:49.498Z,30.92
2023-06-28T13:24:53.514Z,31.00
2023-06-28T13:26:57.797Z,30.56
2023-06-28T13:29:01.314Z,30.08
2023-06-28T13:31:04.196Z,29.78
2023-06-28T13:33:09.421Z,29.49
2023-06-28T13:35:12.499Z,28.91
2023-06-28T13:37:27.756Z,28.91
2023-06-28T13:39:32.295Z,28.49
2023-06-28T13:41:36.250Z,28.14
2023-06-28T13:43:39.815Z,28.38
2023-06-28T13:45:42.783Z,28.21
2023-06-28T13:47:45.689Z,28.06
2023-06-28T13:49:48.357Z,27.96
2023-06-28T13:51:51.088Z,28.04
2023-06-28T13:53:56.545Z,28.10
2023-06-28T13:56:14.262Z,28.20
2023-06-28T13:58:18.370Z,28.40
2023-06-28T14:00:22.296Z,28.30
2023-06-28T14:02:27.121Z,28.25
2023-06-28T14:04:29.766Z,28.23
2023-06-28T14:06:32.413Z,27.96
2023-06-28T14:08:35.268Z,27.97
2023-06-28T14:10:38.472Z,28.04
2023-06-28T14:12:43.071Z,27.89
2023-06-28T14:14:47.215Z,27.96
2023-06-28T14:16:50.083Z,28.09
2023-06-28T14:18:55.204Z,28.22
2023-06-28T14:20:57.979Z,28.17
2023-06-28T14:23:00.617Z,28.24
2023-06-28T14:25:03.851Z,28.25
2023-06-28T14:27:07.352Z,28.10
2023-06-28T14:29:15.193Z,28.03
2023-06-28T14:31:19.466Z,27.77
2023-06-28T14:33:22.640Z,27.64
2023-06-28T14:35:26.282Z,27.56
2023-06-28T14:37:30.129Z,27.34
2023-06-28T14:39:32.916Z,27.42
2023-06-28T14:41:36.387Z,27.33
2023-06-28T14:43:39.351Z,27.43
2023-06-28T14:45:42.234Z,28.02
2023-06-28T14:47:46.848Z,28.28
2023-06-28T14:49:49.561Z,28.03
2023-06-28T14:51:52.487Z,27.90
2023-06-28T14:53:56.630Z,27.66
2023-06-28T14:56:01.369Z,27.53
2023-06-28T14:58:04.482Z,27.48
2023-06-28T15:00:08.593Z,27.61
2023-06-28T15:02:11.640Z,27.85
2023-06-28T15:04:15.719Z,27.86
2023-06-28T15:06:19.608Z,28.02
2023-06-28T15:08:22.388Z,28.04
2023-06-28T15:10:25.870Z,28.24
2023-06-28T15:12:30.742Z,28.30
2023-06-28T15:14:37.708Z,28.51
2023-06-28T15:16:42.775Z,28.66
2023-06-28T15:18:57.376Z,28.72
2023-06-28T15:21:04.778Z,28.86
2023-06-28T15:23:10.671Z,28.58
2023-06-28T15:25:14.202Z,28.47
2023-06-28T15:27:17.518Z,28.46
2023-06-28T15:29:21.150Z,28.45
2023-06-28T15:31:24.210Z,28.30
2023-06-28T15:33:27.014Z,28.09
2023-06-28T15:35:29.869Z,28.04
2023-06-28T15:37:34.212Z,27.64
2023-06-28T15:41:52.935Z,27.29
2023-06-28T15:43:55.610Z,27.28
2023-06-28T15:45:59.427Z,27.46
2023-06-28T15:48:02.172Z,27.68
2023-06-28T15:50:05.468Z,27.89
2023-06-28T15:52:08.765Z,28.17
2023-06-28T15:54:12.774Z,28.22
2023-06-28T15:56:15.476Z,28.26
2023-06-28T15:58:18.456Z,28.13
2023-06-28T16:00:21.859Z,28.00
2023-06-28T16:02:24.817Z,28.06
2023-06-28T16:04:29.151Z,28.12
2023-06-28T16:06:32.604Z,28.08
2023-06-28T16:08:36.577Z,28.07
2023-06-28T16:10:40.743Z,28.03
2023-06-28T16:12:43.681Z,27.82
2023-06-28T16:14:46.335Z,27.64
2023-06-28T16:16:49.013Z,27.55
2023-06-28T16:18:51.961Z,27.44
2023-06-28T16:20:54.594Z,27.29
2023-06-28T16:22:57.874Z,27.20
2023-06-28T16:25:00.564Z,27.06
2023-06-28T16:27:04.966Z,27.01
2023-06-28T16:29:07.749Z,26.87
2023-06-28T16:31:10.431Z,26.78
2023-06-28T16:33:13.106Z,26.63
2023-06-28T16:35:15.835Z,26.52
2023-06-28T16:37:18.586Z,26.46
2023-06-28T16:39:21.747Z,26.45
2023-06-28T16:41:24.375Z,26.42
2023-06-28T16:43:30.286Z,26.40
2023-06-28T16:45:33.691Z,26.32
2023-06-28T16:47:36.892Z,26.34
2023-06-28T16:49:39.792Z,26.51
2023-06-28T16:51:43.103Z,26.64
2023-06-28T16:53:48.960Z,26.92
2023-06-28T16:55:54.179Z,27.00
2023-06-28T16:57:57.083Z,27.02
2023-06-28T17:00:01.538Z,27.12
2023-06-28T17:02:04.842Z,27.07
2023-06-28T17:04:14.913Z,27.14
2023-06-28T17:06:17.954Z,27.18
2023-06-28T17:08:20.775Z,27.36
2023-06-28T17:10:24.010Z,27.36
2023-06-28T17:12:26.857Z,27.48
2023-06-28T17:14:31.141Z,27.54
2023-06-28T17:16:36.970Z,27.60
2023-06-28T17:18:40.114Z,27.71
2023-06-28T17:20:43.187Z,27.80
2023-06-28T17:22:46.204Z,27.58
2023-06-28T17:24:51.938Z,27.60
2023-06-28T17:26:58.011Z,27.63
2023-06-28T17:29:01.418Z,27.68
2023-06-28T17:31:04.058Z,27.61
2023-06-28T17:33:08.072Z,27.68
2023-06-28T17:35:10.923Z,27.67
2023-06-28T17:37:14.217Z,27.58
2023-06-28T17:39:16.979Z,27.64
2023-06-28T17:41:19.592Z,27.53
2023-06-28T17:43:23.841Z,27.56
2023-06-28T17:45:27.449Z,27.56
2023-06-28T17:47:30.098Z,27.57
2023-06-28T17:49:34.109Z,27.56
2023-06-28T17:51:36.719Z,27.54
2023-06-28T17:53:41.194Z,27.53
2023-06-28T17:55:43.783Z,27.52
2023-06-28T17:57:46.395Z,27.56
2023-06-28T17:59:49.345Z,27.65
2023-06-28T18:01:54.838Z,27.59
2023-06-28T18:03:57.447Z,27.58
2023-06-28T18:06:01.518Z,27.45
2023-06-28T18:08:04.618Z,27.48
2023-06-28T18:10:08.079Z,27.41
2023-06-28T18:12:12.513Z,27.32
2023-06-28T18:14:15.107Z,27.25
2023-06-28T18:16:17.713Z,27.23
2023-06-28T18:18:20.326Z,27.20
2023-06-28T18:20:22.926Z,27.16
2023-06-28T18:22:27.285Z,27.14
2023-06-28T18:24:29.888Z,27.02
2023-06-28T18:26:32.686Z,26.92
2023-06-28T18:28:35.270Z,26.84
2023-06-28T18:30:37.869Z,26.78
2023-06-28T18:32:40.569Z,26.67
2023-06-28T18:34:43.163Z,26.63
2023-06-28T18:36:45.764Z,26.53
2023-06-28T18:38:49.720Z,26.47
2023-06-28T18:40:52.299Z,26.39
2023-06-28T18:42:54.988Z,26.32
2023-06-28T18:44:57.588Z,26.28
2023-06-28T18:47:00.740Z,26.28
2023-06-28T18:49:04.153Z,26.23
2023-06-28T18:51:06.757Z,26.19
2023-06-28T18:53:09.400Z,26.13
2023-06-28T18:55:13.398Z,26.08
2023-06-28T18:57:16.068Z,26.00
2023-06-28T18:59:18.698Z,25.94
2023-06-28T19:01:21.318Z,25.89
2023-06-28T19:03:24.055Z,25.85
2023-06-28T19:05:26.696Z,25.81
2023-06-28T19:07:29.275Z,25.77
2023-06-28T19:09:32.112Z,25.70
2023-06-28T19:11:36.136Z,25.65
2023-06-28T19:13:40.930Z,25.61
2023-06-28T19:15:43.713Z,25.54
2023-06-28T19:17:47.172Z,25.50
2023-06-28T19:19:50.019Z,25.46
2023-06-28T19:21:52.685Z,25.43
2023-06-28T19:23:55.610Z,25.40
2023-06-28T19:25:58.185Z,25.33
2023-06-28T19:28:02.122Z,25.29
2023-06-28T19:30:05.465Z,25.23
2023-06-28T19:32:09.264Z,25.16
2023-06-28T19:34:11.857Z,25.09
2023-06-28T19:36:14.821Z,25.02
2023-06-28T19:38:17.471Z,24.96
2023-06-28T19:40:20.209Z,24.88
2023-06-28T19:42:22.881Z,24.83
2023-06-28T19:44:26.845Z,24.78
2023-06-28T19:46:29.544Z,24.72
2023-06-28T19:48:32.569Z,24.67
2023-06-28T19:50:35.716Z,24.60
2023-06-28T19:52:38.282Z,24.54
2023-06-28T19:54:40.930Z,24.49
2023-06-28T19:56:44.280Z,24.41
2023-06-28T19:58:46.968Z,24.33
2023-06-28T20:00:50.990Z,24.25
2023-06-28T20:02:53.652Z,24.18
2023-06-28T20:04:56.310Z,24.10
2023-06-28T20:06:59.096Z,24.00
2023-06-28T20:09:03.686Z,23.91
2023-06-28T20:11:06.288Z,23.82
2023-06-28T20:13:08.973Z,23.75
2023-06-28T20:15:12.291Z,23.69
2023-06-28T20:17:16.323Z,23.67
2023-06-28T20:19:18.922Z,23.64
2023-06-28T20:21:21.531Z,23.57
2023-06-28T20:23:24.163Z,23.49
2023-06-28T20:25:26.851Z,23.43
2023-06-28T20:27:29.484Z,23.40
2023-06-28T20:29:37.017Z,23.35
2023-06-28T20:31:42.797Z,23.32
2023-06-28T20:33:46.868Z,23.27
2023-06-28T20:35:49.754Z,23.25
2023-06-28T20:37:52.699Z,23.24
2023-06-28T20:39:56.670Z,23.21
2023-06-28T20:42:00.913Z,23.17
2023-06-28T20:44:03.527Z,23.13
2023-06-28T20:46:06.483Z,23.11
2023-06-28T20:48:09.102Z,23.10
2023-06-28T20:50:13.249Z,23.06
2023-06-28T20:52:15.861Z,23.02
2023-06-28T20:54:18.514Z,22.98
2023-06-28T20:56:21.373Z,22.95
2023-06-28T20:58:24.115Z,22.91
2023-06-28T21:00:27.173Z,22.89
2023-06-28T21:02:30.288Z,22.86
2023-06-28T21:04:33.496Z,22.84
2023-06-28T21:06:37.598Z,22.80
2023-06-28T21:08:40.200Z,22.79
2023-06-28T21:10:42.896Z,22.77
2023-06-28T21:12:45.563Z,22.75
2023-06-28T21:14:48.183Z,22.70
2023-06-28T21:16:50.899Z,22.69
2023-06-28T21:18:53.702Z,22.67
2023-06-28T21:20:56.313Z,22.62
2023-06-28T21:23:00.548Z,22.61
2023-06-28T21:25:07.482Z,22.57
2023-06-28T21:27:10.196Z,22.54
2023-06-28T21:29:12.859Z,22.52
2023-06-28T21:31:15.574Z,22.49
2023-06-28T21:33:18.211Z,22.47
2023-06-28T21:35:21.361Z,22.47
2023-06-28T21:37:23.987Z,22.46
2023-06-28T21:39:28.094Z,22.44
2023-06-28T21:41:31.492Z,22.43
2023-06-28T21:43:34.164Z,22.38
2023-06-28T21:45:36.749Z,22.33
2023-06-28T21:47:39.594Z,22.28
2023-06-28T21:49:42.277Z,22.25
2023-06-28T21:51:44.884Z,22.22
2023-06-28T21:53:47.630Z,22.19
2023-06-28T21:55:51.828Z,22.16
2023-06-28T21:57:54.448Z,22.15
2023-06-28T21:59:59.720Z,22.15
2023-06-28T22:02:02.381Z,22.14
2023-06-28T22:04:05.430Z,22.15
2023-06-28T22:06:08.071Z,22.14
2023-06-28T22:08:10.738Z,22.10
2023-06-28T22:10:13.511Z,22.08
2023-06-28T22:12:17.500Z,22.05
2023-06-28T22:14:20.177Z,22.03
2023-06-28T22:16:22.880Z,22.01
2023-06-28T22:18:26.109Z,21.98
2023-06-28T22:20:29.060Z,21.95
2023-06-28T22:22:32.281Z,21.94
2023-06-28T22:24:34.874Z,21.93
2023-06-28T22:26:37.698Z,21.91
2023-06-28T22:28:42.131Z,21.91
2023-06-28T22:30:44.793Z,21.87
2023-06-28T22:32:47.791Z,21.85
2023-06-28T22:34:50.464Z,21.84
2023-06-28T22:36:53.089Z,21.83
2023-06-28T22:38:57.582Z,21.81
2023-06-28T22:41:01.605Z,21.79
2023-06-28T22:43:04.954Z,21.77
2023-06-28T22:45:09.883Z,21.73
2023-06-28T22:47:12.637Z,21.71
2023-06-28T22:49:15.417Z,21.69
2023-06-28T22:51:18.871Z,21.68
2023-06-28T22:53:22.153Z,21.67
2023-06-28T22:55:24.762Z,21.68
2023-06-28T22:57:27.381Z,21.67
2023-06-28T23:01:34.126Z,21.60
2023-06-28T23:03:36.950Z,21.58
2023-06-28T23:05:39.606Z,21.55
2023-06-28T23:07:43.089Z,21.51
2023-06-28T23:09:45.680Z,21.45
2023-06-28T23:11:49.023Z,21.41
2023-06-28T23:13:53.111Z,21.36
2023-06-28T23:15:55.885Z,21.34
2023-06-28T23:18:00.566Z,21.31
2023-06-28T23:20:08.691Z,21.26
2023-06-28T23:22:11.572Z,21.22
2023-06-28T23:24:16.600Z,21.16
2023-06-28T23:26:19.209Z,21.13
2023-06-28T23:28:22.693Z,21.10
2023-06-28T23:30:30.807Z,21.08
2023-06-28T23:32:33.454Z,21.07
2023-06-28T23:34:37.448Z,21.06
2023-06-28T23:36:40.069Z,21.05
2023-06-28T23:38:42.848Z,21.06
2023-06-28T23:40:45.568Z,21.07
2023-06-28T23:42:48.325Z,21.09
2023-06-28T23:44:51.439Z,21.06
2023-06-28T23:46:57.209Z,21.04
2023-06-28T23:49:01.324Z,21.03
2023-06-28T23:51:09.089Z,21.02
2023-06-28T23:53:11.725Z,21.03
2023-06-28T23:55:16.514Z,21.03
2023-06-28T23:57:19.178Z,21.01
2023-06-28T23:59:21.819Z,20.99
